This is the latest recevied weather packets stored in our database for station/object KB0BS-13. If no packets are shown the sender has not sent any weather packets the latest 10 day(s).
| Time | Temp. | Humidity | Pressure | Rain* | Wind** | Luminosity | Snow |
|---|---|---|---|---|---|---|---|
| 1778019451 | 3.89° C | 84% | 1009 hPa | 0 mm | - | 159 W/m² | - |
| 1778018844 | 3.33° C | 89% | 1008.9 hPa | 0 mm | - | 219 W/m² | - |
| 1778018542 | 3.33° C | 90% | 1009 hPa | 0 mm | - | 203 W/m² | - |
| 1778017937 | 2.22° C | 95% | 1008.9 hPa | 0 mm | - | 273 W/m² | - |
| 1778015816 | 2.78° C | 93% | 1009.1 hPa | 0 mm | - | 57 W/m² | - |
| 1778015514 | 2.78° C | 92% | 1009 hPa | 0 mm | - | 79 W/m² | - |
| 1778014907 | 2.78° C | 91% | 1008.8 hPa | 0 mm | - | 72 W/m² | - |
| 1778013393 | 2.78° C | 94% | 1008.4 hPa | 0 mm | - | 182 W/m² | - |
| 1778013091 | 2.78° C | 95% | 1008.5 hPa | 0 mm | - | 174 W/m² | - |
| 1778012786 | 3.33° C | 95% | 1008.4 hPa | 0 mm | - | 214 W/m² | - |
| 1778012482 | 3.33° C | 95% | 1008.4 hPa | 0 mm | - | 244 W/m² | - |
| 1778012179 | 2.78° C | 97% | 1008.3 hPa | 0 mm | - | 670 W/m² | - |
| 1778011877 | 2.78° C | 97% | 1008.4 hPa | 0 mm | - | 267 W/m² | - |
| 1778011575 | 2.22° C | 96% | 1008.3 hPa | 0 mm | - | 178 W/m² | - |
| 1778010968 | 2.22° C | 97% | 1008.3 hPa | 0 mm | - | 124 W/m² | - |
| 1778009755 | 2.78° C | 93% | 1008.2 hPa | 0 mm | - | 90 W/m² | - |
| 1778009452 | 3.89° C | 92% | 1008.1 hPa | 1.27 mm | - | 128 W/m² | - |
| 1778009151 | 3.89° C | 89% | 1008.1 hPa | 1.27 mm | - | 134 W/m² | - |
| 1778008848 | 3.89° C | 87% | 1008 hPa | 1.78 mm | - | 104 W/m² | - |
| 1778008546 | 3.89° C | 87% | 1007.9 hPa | 1.78 mm | - | 90 W/m² | - |
| 1778008244 | 4.44° C | 84% | 1007.5 hPa | 1.27 mm | - | 91 W/m² | - |
| 1778007944 | 3.89° C | 85% | 1007.4 hPa | 1.27 mm | - | 79 W/m² | - |
| 1778006124 | 3.89° C | 84% | 1006.6 hPa | 0 mm | - | 135 W/m² | - |
| 1778005517 | 4.44° C | 79% | 1006.6 hPa | 0 mm | - | 178 W/m² | - |
| 1778002787 | 7.78° C | 54% | 1005.6 hPa | 0 mm | - | 128 W/m² | - |
* Rain latest hour (hover to see other rain measurements)
** Current wind speed in m/s (hover to see current wind gust speed)